Time;durP1;ratioP1;P1;durP2;ratioP2;P2;SDS_P1;SDS_P2;PMS_P1;PMS_P2;Temp;Humidity;BMP_temperature;BMP_pressure;BME280_temperature;BME280_humidity;BME280_pressure;Samples;Min_cycle;Max_cycle;Signal;HPM_P1;HPM_P2
2023/10/01 00:01:02;;;;;;;17.30;9.63;;;12.20;99.90;;;;;;6067872;23;20244;-85
2023/10/01 00:03:29;;;;;;;18.35;10.07;;;12.00;99.90;;;;;;6065513;23;20680;-86
2023/10/01 00:05:58;;;;;;;17.25;9.90;;;12.00;99.90;;;;;;6042002;23;20173;-85
2023/10/01 00:08:25;;;;;;;18.02;9.98;;;11.90;99.90;;;;;;6066489;23;20828;-85
2023/10/01 00:10:51;;;;;;;19.13;9.50;;;12.00;99.90;;;;;;6067644;23;20173;-85
2023/10/01 00:13:20;;;;;;;16.05;9.48;;;12.00;99.90;;;;;;6066548;23;20201;-85
2023/10/01 00:15:49;;;;;;;19.02;10.18;;;12.00;99.90;;;;;;6042297;23;20229;-85
2023/10/01 00:18:16;;;;;;;17.15;9.77;;;11.90;99.90;;;;;;6066619;23;20181;-85
2023/10/01 00:20:43;;;;;;;16.58;8.63;;;11.90;99.90;;;;;;6066006;23;20189;-85
2023/10/01 00:23:12;;;;;;;16.20;8.70;;;11.90;99.90;;;;;;6066919;23;20201;-85
2023/10/01 00:25:41;;;;;;;17.75;9.10;;;12.00;99.90;;;;;;6066412;23;20273;-85
2023/10/01 00:28:09;;;;;;;16.70;9.15;;;11.90;99.90;;;;;;6042650;23;20181;-85
2023/10/01 00:30:36;;;;;;;16.10;9.18;;;11.90;99.90;;;;;;6064864;23;20959;-85
2023/10/01 00:33:06;;;;;;;17.85;9.25;;;11.90;99.90;;;;;;6066824;23;20177;-85
2023/10/01 00:35:37;;;;;;;16.98;8.77;;;11.70;99.90;;;;;;6066265;23;20683;-85
2023/10/01 00:38:04;;;;;;;16.05;9.73;;;11.70;99.90;;;;;;6040831;23;20531;-85
2023/10/01 00:40:32;;;;;;;14.75;9.07;;;11.80;99.90;;;;;;6066665;23;20256;-85
2023/10/01 00:42:59;;;;;;;18.25;8.30;;;11.90;99.90;;;;;;6067025;23;20625;-85
2023/10/01 00:45:27;;;;;;;16.17;9.07;;;11.80;99.90;;;;;;6040927;23;20528;-85
2023/10/01 00:47:54;;;;;;;17.00;8.60;;;11.70;99.90;;;;;;6067431;23;20178;-85
2023/10/01 00:50:23;;;;;;;16.67;9.30;;;11.70;99.90;;;;;;6040991;23;20629;-85
2023/10/01 00:52:51;;;;;;;17.40;8.85;;;11.80;99.90;;;;;;6066608;23;20177;-84
2023/10/01 00:55:20;;;;;;;15.70;9.05;;;11.70;99.90;;;;;;6065909;23;20656;-85
2023/10/01 00:57:49;;;;;;;17.70;9.40;;;11.50;99.90;;;;;;6066405;23;20184;-85
2023/10/01 01:00:19;;;;;;;20.88;9.30;;;11.40;99.90;;;;;;6063762;23;20205;-85
2023/10/01 01:02:57;;;;;;;15.32;8.43;;;11.30;99.90;;;;;;6064593;23;20177;-85
2023/10/01 01:05:34;;;;;;;16.10;8.13;;;11.20;99.90;;;;;;6064407;23;20529;-85
2023/10/01 01:08:07;;;;;;;17.85;8.93;;;11.20;99.90;;;;;;6064941;23;20169;-85
2023/10/01 01:10:42;;;;;;;16.20;8.38;;;11.30;99.90;;;;;;6065189;23;20184;-86
2023/10/01 01:13:16;;;;;;;16.17;8.85;;;11.30;99.90;;;;;;6064705;23;20166;-85
2023/10/01 01:15:45;;;;;;;16.52;8.45;;;11.30;99.90;;;;;;6066007;23;20528;-85
2023/10/01 01:18:14;;;;;;;16.00;8.27;;;11.30;99.90;;;;;;6066295;23;20229;-85
2023/10/01 01:20:43;;;;;;;17.23;8.15;;;11.30;99.90;;;;;;6067021;23;20227;-85
2023/10/01 01:23:26;;;;;;;16.75;8.70;;;11.30;99.90;;;;;;6065935;23;20235;-85
2023/10/01 01:25:54;;;;;;;20.17;8.30;;;11.30;99.90;;;;;;6065745;23;20174;-85
2023/10/01 01:28:27;;;;;;;15.35;7.93;;;11.30;99.90;;;;;;6066558;23;20178;-85
2023/10/01 01:30:55;;;;;;;15.95;8.20;;;11.20;99.90;;;;;;6066843;23;20491;-85
2023/10/01 01:33:26;;;;;;;13.65;7.75;;;11.30;99.90;;;;;;6039811;23;20236;-85
2023/10/01 01:35:54;;;;;;;15.65;8.20;;;11.20;99.90;;;;;;6065483;23;20190;-85
2023/10/01 01:38:22;;;;;;;15.35;8.02;;;11.30;99.90;;;;;;6039573;23;20276;-85
2023/10/01 01:40:51;;;;;;;16.30;8.38;;;11.20;99.90;;;;;;6065407;23;20177;-85
2023/10/01 01:43:21;;;;;;;15.85;8.18;;;11.20;99.90;;;;;;6065661;23;20174;-86
2023/10/01 01:45:54;;;;;;;16.90;8.57;;;11.30;99.90;;;;;;6065048;23;20173;-85
2023/10/01 01:48:30;;;;;;;15.40;8.10;;;11.20;99.90;;;;;;6016301;23;20185;-85
2023/10/01 01:51:00;;;;;;;16.17;8.45;;;11.20;99.90;;;;;;6065721;23;20197;-85
2023/10/01 01:53:34;;;;;;;16.30;8.38;;;11.20;99.90;;;;;;6065981;23;20181;-85
2023/10/01 01:56:04;;;;;;;14.05;7.82;;;11.20;99.90;;;;;;6063503;23;20699;-86
2023/10/01 01:58:32;;;;;;;15.20;8.10;;;11.20;99.90;;;;;;6041114;23;20182;-85
2023/10/01 02:01:08;;;;;;;14.15;7.65;;;11.30;99.90;;;;;;6067080;23;20180;-85
2023/10/01 02:03:37;;;;;;;15.73;7.78;;;11.20;99.90;;;;;;6040777;23;20184;-85
2023/10/01 02:06:06;;;;;;;15.48;7.78;;;11.20;99.90;;;;;;6017475;23;20178;-85
2023/10/01 02:08:48;;;;;;;16.13;8.25;;;11.30;99.90;;;;;;6066565;23;20272;-85
2023/10/01 02:11:15;;;;;;;16.35;8.13;;;11.20;99.90;;;;;;6066824;23;20169;-85
2023/10/01 02:13:45;;;;;;;18.67;8.35;;;11.20;99.90;;;;;;6066257;23;20179;-85
2023/10/01 02:16:35;;;;;;;12.95;7.40;;;11.10;99.90;;;;;;6065563;23;20215;-85
2023/10/01 02:19:18;;;;;;;16.48;7.93;;;11.10;99.90;;;;;;6067067;23;20172;-85
2023/10/01 02:21:49;;;;;;;13.80;8.18;;;11.00;99.90;;;;;;6066234;23;20173;-85
2023/10/01 02:24:22;;;;;;;13.07;8.48;;;10.90;99.90;;;;;;6041197;23;20166;-86
2023/10/01 02:26:52;;;;;;;16.60;8.27;;;10.90;99.90;;;;;;6019328;23;20625;-83
2023/10/01 02:29:24;;;;;;;15.32;8.05;;;10.90;99.90;;;;;;6067634;23;20248;-84
2023/10/01 02:31:56;;;;;;;15.20;8.60;;;10.80;99.90;;;;;;6019910;23;20177;-85
2023/10/01 02:34:23;;;;;;;15.95;8.70;;;10.90;99.90;;;;;;6068205;23;20166;-85
2023/10/01 02:36:50;;;;;;;15.43;9.00;;;10.80;99.90;;;;;;6067525;23;20203;-85
2023/10/01 02:39:27;;;;;;;16.10;8.32;;;10.80;99.90;;;;;;6068350;23;20184;-85
2023/10/01 02:44:48;;;;;;;15.80;8.18;;;10.80;99.90;;;;;;6016044;23;20180;-85
2023/10/01 02:47:16;;;;;;;16.30;8.70;;;10.80;99.90;;;;;;6067925;23;20184;-85
2023/10/01 02:49:49;;;;;;;16.83;7.95;;;10.80;99.90;;;;;;6042642;23;20188;-86
2023/10/01 02:52:16;;;;;;;14.68;8.02;;;10.80;99.90;;;;;;6043823;23;20852;-85
2023/10/01 02:54:44;;;;;;;13.35;7.90;;;10.80;99.90;;;;;;6067040;23;20558;-85
2023/10/01 02:57:13;;;;;;;17.33;8.60;;;10.90;99.90;;;;;;6068311;23;20246;-84
2023/10/01 03:00:10;;;;;;;18.92;8.48;;;10.80;99.90;;;;;;6067684;23;20256;-85
2023/10/01 03:02:31;;;;;;;15.68;8.60;;;10.70;99.90;;;;;;6067216;23;20178;-85
2023/10/01 03:05:05;;;;;;;16.88;8.68;;;10.70;99.90;;;;;;6067363;23;20510;-85
2023/10/01 03:07:38;;;;;;;19.83;7.78;;;10.60;99.90;;;;;;6067423;23;20169;-86
2023/10/01 03:10:16;;;;;;;14.85;8.20;;;10.50;99.90;;;;;;6068405;23;20166;-85
2023/10/01 03:12:49;;;;;;;17.50;9.48;;;10.50;99.90;;;;;;6041980;23;20684;-85
2023/10/01 03:15:25;;;;;;;16.38;8.55;;;10.60;99.90;;;;;;6043945;23;20185;-85
2023/10/01 03:17:56;;;;;;;17.83;9.05;;;10.60;99.90;;;;;;6067679;23;20218;-85
2023/10/01 03:23:05;;;;;;;18.48;8.70;;;10.60;99.90;;;;;;6065406;23;20174;-85
2023/10/01 03:25:41;;;;;;;16.25;8.05;;;10.50;99.90;;;;;;6043156;23;20181;-85
2023/10/01 03:28:11;;;;;;;16.88;8.88;;;10.50;99.90;;;;;;6067705;23;20487;-85
2023/10/01 03:30:45;;;;;;;20.27;9.88;;;10.50;99.90;;;;;;6067824;23;20173;-85
2023/10/01 03:33:15;;;;;;;19.75;8.93;;;10.50;99.90;;;;;;6067454;23;20167;-85
2023/10/01 03:35:47;;;;;;;15.73;8.77;;;10.60;99.90;;;;;;6043541;23;20218;-85
2023/10/01 03:38:15;;;;;;;19.65;9.38;;;10.50;99.90;;;;;;6067151;23;20165;-85
2023/10/01 03:40:59;;;;;;;17.00;9.20;;;10.50;99.90;;;;;;6018470;23;20185;-85
2023/10/01 03:43:34;;;;;;;17.60;8.70;;;10.40;99.90;;;;;;6041381;23;20173;-85
2023/10/01 03:46:13;;;;;;;18.52;9.35;;;10.40;99.90;;;;;;6067275;23;20175;-85
2023/10/01 03:48:59;;;;;;;20.25;9.18;;;10.40;99.90;;;;;;6067113;23;20166;-85
2023/10/01 03:51:52;;;;;;;17.58;8.60;;;10.40;99.90;;;;;;6044715;23;20684;-85
2023/10/01 03:54:19;;;;;;;19.55;9.45;;;10.40;99.90;;;;;;6066001;23;20184;-85
2023/10/01 03:56:56;;;;;;;16.75;8.98;;;10.40;99.90;;;;;;6041560;23;20197;-85
2023/10/01 03:59:24;;;;;;;19.63;9.13;;;10.40;99.90;;;;;;6067801;23;20170;-85
2023/10/01 04:02:02;;;;;;;16.75;8.63;;;10.40;99.90;;;;;;6067434;23;20173;-85
2023/10/01 04:04:32;;;;;;;20.50;9.25;;;10.40;99.90;;;;;;6066456;23;20170;-84
2023/10/01 04:07:09;;;;;;;17.55;8.55;;;10.30;99.90;;;;;;6042192;23;20174;-85
2023/10/01 04:09:45;;;;;;;19.52;9.52;;;10.30;99.90;;;;;;6067856;23;20197;-85
2023/10/01 04:12:26;;;;;;;18.88;9.30;;;10.30;99.90;;;;;;6066978;23;20467;-85
2023/10/01 04:14:53;;;;;;;20.48;9.18;;;10.30;99.90;;;;;;6071603;23;20161;-85
2023/10/01 04:17:25;;;;;;;15.80;8.68;;;10.20;99.90;;;;;;6065815;23;20211;-85
2023/10/01 04:19:57;;;;;;;15.88;8.82;;;10.20;99.90;;;;;;6035139;23;20276;-85
2023/10/01 04:22:25;;;;;;;18.17;8.25;;;10.20;99.90;;;;;;6035041;23;20231;-86
2023/10/01 04:25:09;;;;;;;16.70;9.80;;;10.20;99.90;;;;;;6037601;23;20216;-85
2023/10/01 04:27:41;;;;;;;16.27;9.07;;;10.20;99.90;;;;;;6036632;23;20178;-84
2023/10/01 04:30:10;;;;;;;22.35;9.82;;;10.20;99.90;;;;;;6038724;23;20172;-85
2023/10/01 04:32:37;;;;;;;18.48;9.18;;;10.20;99.90;;;;;;6038008;23;20230;-85
2023/10/01 04:35:14;;;;;;;19.80;8.52;;;10.20;99.90;;;;;;6012889;23;20177;-84
2023/10/01 04:37:41;;;;;;;16.25;8.02;;;10.20;99.90;;;;;;6037865;23;20269;-85
2023/10/01 04:42:52;;;;;;;20.15;9.30;;;10.20;99.90;;;;;;6037644;23;20609;-85
2023/10/01 04:45:23;;;;;;;17.08;9.43;;;10.30;99.90;;;;;;6036181;23;20182;-85
2023/10/01 04:47:55;;;;;;;19.67;8.60;;;10.30;99.90;;;;;;6038391;23;20166;-85
2023/10/01 04:50:29;;;;;;;18.75;8.95;;;10.30;99.90;;;;;;6038019;23;20170;-85
2023/10/01 04:52:59;;;;;;;19.42;9.15;;;10.30;99.90;;;;;;6036517;23;20605;-85
2023/10/01 04:55:28;;;;;;;17.13;8.88;;;10.20;99.90;;;;;;6038281;23;20475;-85
2023/10/01 04:57:57;;;;;;;18.88;9.45;;;10.20;99.90;;;;;;6038614;23;20178;-85
2023/10/01 05:00:24;;;;;;;19.80;9.50;;;10.20;99.90;;;;;;6037737;23;20181;-85
2023/10/01 05:02:52;;;;;;;19.35;9.95;;;10.20;99.90;;;;;;6038230;23;20181;-85
2023/10/01 05:05:25;;;;;;;17.88;8.82;;;10.20;99.90;;;;;;6037188;23;20181;-85
2023/10/01 05:07:55;;;;;;;19.10;8.38;;;10.20;99.90;;;;;;6036487;23;20618;-85
2023/10/01 05:10:22;;;;;;;19.13;9.27;;;10.20;99.90;;;;;;6036636;23;20624;-85
2023/10/01 05:12:55;;;;;;;18.70;9.75;;;10.10;99.90;;;;;;6037022;23;20238;-85
2023/10/01 05:15:26;;;;;;;17.00;8.70;;;10.10;99.90;;;;;;6036619;23;20172;-85
2023/10/01 05:17:55;;;;;;;15.48;9.15;;;10.00;99.90;;;;;;6037665;23;20197;-84
2023/10/01 05:20:23;;;;;;;17.08;9.07;;;10.00;99.90;;;;;;6013077;23;20189;-84
2023/10/01 05:22:54;;;;;;;16.65;9.35;;;10.00;99.90;;;;;;6037481;23;20178;-85
2023/10/01 05:25:21;;;;;;;20.00;9.32;;;10.10;99.90;;;;;;6036293;23;20624;-84
2023/10/01 05:27:53;;;;;;;21.15;9.50;;;10.10;99.90;;;;;;6036137;23;20719;-84
2023/10/01 05:33:07;;;;;;;17.60;9.35;;;10.10;99.90;;;;;;6037427;23;20170;-85
2023/10/01 05:35:41;;;;;;;19.45;9.10;;;10.20;99.90;;;;;;6038133;23;20172;-84
2023/10/01 05:38:10;;;;;;;16.92;9.00;;;10.30;99.90;;;;;;6037138;23;20173;-85
2023/10/01 05:40:40;;;;;;;20.98;9.45;;;10.40;99.90;;;;;;6012310;23;20728;-84
2023/10/01 05:43:13;;;;;;;15.45;8.60;;;10.40;99.90;;;;;;6035237;23;20178;-84
2023/10/01 05:45:41;;;;;;;17.25;8.85;;;10.60;99.90;;;;;;6034206;23;20614;-85
2023/10/01 05:48:11;;;;;;;16.13;8.32;;;10.70;99.90;;;;;;6038031;23;20505;-85
2023/10/01 05:50:41;;;;;;;18.52;8.93;;;10.80;99.90;;;;;;6036469;23;20812;-85
2023/10/01 05:53:09;;;;;;;19.73;9.30;;;10.80;99.90;;;;;;6037020;23;20174;-86
2023/10/01 05:55:37;;;;;;;16.92;8.63;;;10.70;99.90;;;;;;6037095;23;20182;-85
2023/10/01 05:58:13;;;;;;;17.08;8.85;;;10.60;99.90;;;;;;6037698;23;20673;-84
2023/10/01 06:00:45;;;;;;;17.13;9.18;;;10.60;99.90;;;;;;6036801;23;20181;-84
2023/10/01 06:03:14;;;;;;;17.88;9.30;;;10.50;99.90;;;;;;6039696;23;20182;-85
2023/10/01 06:05:50;;;;;;;19.45;10.02;;;10.60;99.90;;;;;;6037428;23;20177;-85
2023/10/01 06:08:17;;;;;;;20.70;9.93;;;10.60;99.90;;;;;;6037731;23;20162;-85
2023/10/01 06:10:59;;;;;;;18.58;8.73;;;10.60;99.90;;;;;;6039663;23;20181;-85
2023/10/01 06:13:28;;;;;;;17.25;8.98;;;10.70;99.90;;;;;;6037428;23;20220;-85
2023/10/01 06:15:56;;;;;;;16.75;9.30;;;10.80;99.90;;;;;;6037795;23;20178;-85
2023/10/01 06:18:25;;;;;;;17.67;9.27;;;10.80;99.90;;;;;;6038792;23;20692;-84
2023/10/01 06:20:53;;;;;;;19.25;9.88;;;10.90;99.90;;;;;;6056540;23;20482;-85
2023/10/01 06:23:20;;;;;;;18.42;9.05;;;10.90;99.90;;;;;;6065974;23;20177;-85
2023/10/01 06:25:53;;;;;;;17.80;9.30;;;11.00;99.90;;;;;;6067283;23;20178;-85
2023/10/01 06:28:23;;;;;;;21.25;9.95;;;11.20;99.90;;;;;;6067328;23;20225;-86
2023/10/01 06:30:50;;;;;;;18.67;9.25;;;11.30;99.90;;;;;;6068230;23;20260;-85
2023/10/01 06:33:26;;;;;;;16.88;9.50;;;11.40;99.90;;;;;;6041472;23;20177;-85
2023/10/01 06:38:44;;;;;;;17.40;9.50;;;11.50;99.90;;;;;;6068300;23;20252;-84
2023/10/01 06:41:16;;;;;;;19.48;10.88;;;11.50;99.90;;;;;;6043637;23;20528;-85
2023/10/01 06:43:48;;;;;;;19.98;10.23;;;11.60;99.90;;;;;;6019851;23;20621;-84
2023/10/01 06:46:19;;;;;;;19.98;9.90;;;11.70;99.90;;;;;;6068162;23;20166;-85
2023/10/01 06:48:47;;;;;;;19.08;9.95;;;11.70;99.90;;;;;;6068112;23;20165;-84
2023/10/01 06:51:19;;;;;;;19.83;10.48;;;11.90;99.90;;;;;;6068313;23;20197;-85
2023/10/01 06:53:47;;;;;;;19.52;9.57;;;12.00;99.90;;;;;;6067841;23;20165;-85
2023/10/01 06:56:18;;;;;;;19.25;10.05;;;12.10;99.90;;;;;;6018796;23;20185;-85
2023/10/01 06:59:12;;;;;;;17.40;9.68;;;12.20;99.90;;;;;;6042939;23;20252;-85
2023/10/01 07:01:42;;;;;;;17.35;9.48;;;12.30;99.90;;;;;;6067822;23;20177;-85
2023/10/01 07:04:09;;;;;;;21.73;10.20;;;12.40;99.90;;;;;;6067821;23;20172;-85
2023/10/01 07:06:39;;;;;;;18.30;10.15;;;12.50;99.90;;;;;;6067583;23;20177;-84
2023/10/01 07:09:23;;;;;;;18.17;9.63;;;12.70;99.90;;;;;;6068155;23;20174;-85
2023/10/01 07:11:50;;;;;;;20.70;10.52;;;12.80;99.90;;;;;;6067631;23;20200;-85
2023/10/01 07:14:29;;;;;;;16.70;9.25;;;12.90;99.90;;;;;;6066329;23;20177;-86
2023/10/01 07:16:56;;;;;;;17.90;9.60;;;13.00;99.90;;;;;;6045356;23;20238;-84
2023/10/01 07:19:23;;;;;;;16.77;9.23;;;13.20;99.90;;;;;;6066710;23;20213;-85
2023/10/01 07:21:56;;;;;;;18.85;10.02;;;13.30;99.90;;;;;;6067847;23;20170;-84
2023/10/01 07:24:24;;;;;;;19.27;10.60;;;13.40;99.90;;;;;;6066835;23;20165;-85
2023/10/01 07:26:58;;;;;;;21.67;10.38;;;13.50;99.90;;;;;;6042934;23;20182;-85
2023/10/01 07:29:30;;;;;;;19.13;10.20;;;13.70;99.90;;;;;;6042910;23;20620;-84
2023/10/01 07:31:58;;;;;;;16.02;9.15;;;13.80;99.90;;;;;;6067222;23;20181;-84
2023/10/01 07:34:26;;;;;;;18.33;10.48;;;13.90;99.90;;;;;;6017948;23;20193;-84
2023/10/01 07:36:56;;;;;;;17.80;9.55;;;14.10;99.90;;;;;;6041878;23;20193;-87
2023/10/01 07:39:25;;;;;;;21.00;9.98;;;14.20;99.90;;;;;;6068618;23;20205;-84
2023/10/01 07:41:52;;;;;;;19.50;9.90;;;14.40;99.90;;;;;;6043254;23;20180;-84
2023/10/01 07:44:19;;;;;;;20.42;10.25;;;14.50;99.90;;;;;;6066176;23;20181;-87
2023/10/01 07:46:46;;;;;;;21.02;10.18;;;14.70;99.90;;;;;;6067027;23;20179;-85
2023/10/01 07:49:18;;;;;;;20.35;10.10;;;14.90;99.90;;;;;;6067298;23;20173;-84
2023/10/01 07:51:48;;;;;;;21.13;10.55;;;14.90;99.90;;;;;;6042093;23;20668;-86
2023/10/01 07:54:22;;;;;;;21.67;9.77;;;15.10;99.90;;;;;;6041237;23;20185;-84
2023/10/01 07:56:51;;;;;;;20.45;9.70;;;15.30;99.90;;;;;;6066137;23;20188;-85
2023/10/01 07:59:28;;;;;;;20.70;10.68;;;15.40;99.90;;;;;;6066860;23;20177;-86
2023/10/01 08:02:09;;;;;;;18.27;9.75;;;15.50;99.90;;;;;;6067479;23;20168;-84
2023/10/01 08:04:50;;;;;;;16.17;9.38;;;15.60;99.90;;;;;;6065971;23;20169;-87
2023/10/01 08:07:22;;;;;;;16.83;9.85;;;15.70;99.90;;;;;;6067942;23;20189;-87
2023/10/01 08:09:58;;;;;;;19.05;10.25;;;15.90;99.90;;;;;;6067056;23;20166;-88
2023/10/01 08:12:40;;;;;;;16.60;9.32;;;16.00;99.90;;;;;;6066621;23;20930;-88
2023/10/01 08:15:29;;;;;;;17.25;10.10;;;16.10;99.90;;;;;;6065649;23;20169;-88
2023/10/01 08:17:56;;;;;;;20.73;10.48;;;16.30;99.20;;;;;;6045568;23;20225;-88
2023/10/01 08:20:22;;;;;;;17.63;9.82;;;16.50;98.50;;;;;;6036662;23;20256;-88
2023/10/01 08:25:45;;;;;;;19.48;10.77;;;16.70;97.80;;;;;;6038628;23;20245;-86
2023/10/01 08:28:26;;;;;;;16.98;9.82;;;16.80;97.30;;;;;;6037683;23;20497;-85
2023/10/01 08:31:02;;;;;;;19.73;10.02;;;17.00;97.20;;;;;;6037487;23;20174;-84
2023/10/01 08:33:32;;;;;;;20.80;10.32;;;17.10;97.00;;;;;;6037620;23;20166;-84
2023/10/01 08:36:12;;;;;;;20.63;10.15;;;17.30;97.40;;;;;;6037696;23;20198;-86
2023/10/01 08:38:38;;;;;;;18.13;10.30;;;17.60;95.70;;;;;;6037506;23;20633;-83
2023/10/01 08:41:08;;;;;;;18.00;10.05;;;17.80;93.40;;;;;;6037622;23;20205;-84
2023/10/01 08:43:35;;;;;;;19.05;10.45;;;18.00;93.00;;;;;;6035492;23;20508;-86
2023/10/01 08:46:12;;;;;;;17.10;9.95;;;18.10;92.20;;;;;;6035872;23;20213;-86
2023/10/01 08:48:40;;;;;;;17.38;9.98;;;18.30;92.20;;;;;;6035004;23;20186;-85
2023/10/01 08:51:11;;;;;;;20.42;10.32;;;18.40;92.30;;;;;;6036543;23;20199;-85
2023/10/01 08:53:41;;;;;;;20.05;10.60;;;18.60;91.40;;;;;;6035843;23;20177;-85
2023/10/01 08:56:13;;;;;;;22.27;11.25;;;18.70;92.30;;;;;;6034569;23;20216;-85
2023/10/01 08:58:48;;;;;;;19.70;10.50;;;18.80;91.40;;;;;;6036894;23;20517;-85
2023/10/01 09:01:19;;;;;;;20.25;10.48;;;19.00;91.30;;;;;;6037405;23;20613;-86
2023/10/01 09:03:48;;;;;;;17.30;10.70;;;19.10;90.40;;;;;;6035913;23;20201;-86
2023/10/01 09:09:19;;;;;;;18.23;9.77;;;19.90;80.80;;;;;;6036593;23;20493;-86
2023/10/01 09:11:50;;;;;;;18.15;10.32;;;20.10;79.50;;;;;;6037018;23;20173;-86
2023/10/01 09:14:19;;;;;;;17.73;10.48;;;20.30;74.10;;;;;;6035242;23;20182;-87
2023/10/01 09:16:49;;;;;;;16.27;9.55;;;20.50;64.10;;;;;;6037211;23;20180;-86
2023/10/01 09:19:34;;;;;;;19.75;11.38;;;21.20;48.30;;;;;;6035846;23;20166;-85
2023/10/01 09:22:09;;;;;;;18.23;10.80;;;21.80;28.70;;;;;;6036617;23;20173;-83
2023/10/01 09:24:39;;;;;;;17.98;11.45;;;22.70;28.50;;;;;;6035125;23;21106;-83
2023/10/01 09:27:18;;;;;;;22.55;11.98;;;24.00;19.60;;;;;;6037588;23;20177;-83
2023/10/01 09:29:46;;;;;;;20.35;12.65;;;24.80;16.20;;;;;;6035243;23;20260;-84
2023/10/01 09:32:14;;;;;;;20.45;12.85;;;25.30;16.30;;;;;;6037516;23;20177;-83
2023/10/01 09:34:47;;;;;;;18.42;12.52;;;26.40;14.80;;;;;;6036630;23;20657;-86
2023/10/01 09:37:33;;;;;;;19.15;13.02;;;26.90;14.50;;;;;;6037850;23;20648;-85
2023/10/01 09:40:04;;;;;;;17.33;12.38;;;27.10;12.70;;;;;;6037213;23;20621;-84
2023/10/01 09:42:44;;;;;;;18.67;13.50;;;27.10;13.20;;;;;;6037487;23;20639;-84
2023/10/01 09:45:26;;;;;;;17.42;12.30;;;27.30;13.00;;;;;;6036966;23;20256;-85
2023/10/01 09:48:02;;;;;;;19.50;13.55;;;28.00;11.40;;;;;;6037334;23;20201;-87
2023/10/01 09:50:31;;;;;;;17.67;13.60;;;27.80;12.40;;;;;;6035617;23;20623;-84
2023/10/01 09:53:00;;;;;;;21.20;14.25;;;27.10;15.20;;;;;;6036133;23;20181;-84
2023/10/01 09:55:29;;;;;;;18.48;13.75;;;26.50;14.90;;;;;;6035152;23;20261;-84
2023/10/01 09:57:57;;;;;;;19.52;14.07;;;26.00;14.60;;;;;;6037373;23;20289;-84
2023/10/01 10:00:39;;;;;;;19.67;13.32;;;25.90;14.60;;;;;;6037507;23;20179;-84
2023/10/01 10:03:11;;;;;;;19.13;14.55;;;26.00;14.60;;;;;;6037233;23;20213;-85
2023/10/01 10:05:40;;;;;;;20.58;13.60;;;26.70;15.10;;;;;;6036390;23;20162;-85
2023/10/01 10:08:15;;;;;;;17.85;12.63;;;27.70;14.10;;;;;;6036781;23;20181;-85
2023/10/01 10:10:48;;;;;;;17.60;12.77;;;27.00;15.20;;;;;;6036791;23;20221;-85
2023/10/01 10:13:36;;;;;;;19.05;13.48;;;26.20;16.40;;;;;;6037101;23;20598;-85
2023/10/01 10:16:28;;;;;;;18.27;12.52;;;25.60;16.90;;;;;;6036477;23;20181;-86
2023/10/01 10:19:09;;;;;;;19.40;13.27;;;25.20;17.80;;;;;;6037353;23;20564;-86
2023/10/01 10:22:16;;;;;;;21.77;13.80;;;25.70;15.80;;;;;;6063199;23;20212;-86
2023/10/01 10:24:47;;;;;;;18.95;12.55;;;25.90;14.60;;;;;;6056235;23;20181;-87
2023/10/01 10:27:35;;;;;;;19.85;13.52;;;26.00;16.20;;;;;;6061702;23;20658;-87
2023/10/01 10:30:17;;;;;;;18.98;13.45;;;26.30;14.80;;;;;;6063382;23;20661;-87
2023/10/01 10:33:29;;;;;;;18.05;12.40;;;27.10;13.10;;;;;;6064670;23;20171;-86
2023/10/01 10:40:04;;;;;;;18.05;12.55;;;27.10;14.70;;;;;;6057539;23;20239;-87
2023/10/01 10:42:33;;;;;;;19.25;12.95;;;27.00;12.10;;;;;;6006178;23;20167;-86
2023/10/01 10:45:21;;;;;;;20.27;13.18;;;27.10;13.00;;;;;;6005302;23;20178;-85
2023/10/01 10:47:58;;;;;;;19.92;12.38;;;26.40;14.80;;;;;;5997381;23;20248;-84
2023/10/01 10:50:41;;;;;;;18.50;12.65;;;25.50;14.40;;;;;;6067714;23;20695;-84
2023/10/01 10:53:15;;;;;;;18.92;12.88;;;25.10;17.60;;;;;;6067218;23;20540;-87
2023/10/01 10:56:00;;;;;;;20.67;12.73;;;25.30;15.90;;;;;;6066661;23;20195;-88
2023/10/01 10:58:29;;;;;;;19.80;13.05;;;25.40;16.50;;;;;;6067216;23;20195;-88
2023/10/01 11:01:15;;;;;;;21.08;13.30;;;25.00;16.00;;;;;;6042444;23;20181;-87
2023/10/01 11:03:43;;;;;;;18.33;12.52;;;24.70;18.30;;;;;;6041927;23;20247;-83
2023/10/01 11:06:15;;;;;;;22.20;12.90;;;24.00;18.90;;;;;;6041718;23;20548;-85
2023/10/01 11:08:50;;;;;;;20.38;12.10;;;23.40;19.10;;;;;;6067089;23;20244;-85
2023/10/01 11:11:21;;;;;;;19.70;12.43;;;23.60;19.40;;;;;;6067230;23;20165;-86
2023/10/01 11:13:59;;;;;;;22.80;12.77;;;23.60;19.30;;;;;;6017831;23;20192;-88
2023/10/01 11:16:37;;;;;;;19.25;11.52;;;23.40;19.10;;;;;;6066392;23;20169;-87
2023/10/01 11:19:13;;;;;;;18.60;11.50;;;23.60;20.00;;;;;;6067108;23;20551;-87
2023/10/01 11:22:01;;;;;;;18.05;11.30;;;23.70;20.00;;;;;;6036722;23;20189;-85
2023/10/01 11:24:33;;;;;;;17.00;10.88;;;23.50;19.10;;;;;;6032768;23;20181;-85
2023/10/01 11:27:22;;;;;;;21.75;11.15;;;23.40;21.00;;;;;;6036910;23;20182;-86
2023/10/01 11:30:15;;;;;;;19.02;11.52;;;23.40;22.90;;;;;;6036396;23;20194;-85
2023/10/01 11:33:12;;;;;;;20.05;11.85;;;23.20;22.60;;;;;;6037267;23;20202;-86
2023/10/01 11:35:41;;;;;;;19.30;11.25;;;23.10;22.90;;;;;;6037264;23;20473;-87
2023/10/01 11:38:10;;;;;;;18.33;10.80;;;23.10;19.60;;;;;;6036716;23;20201;-86
2023/10/01 11:43:36;;;;;;;21.05;11.57;;;22.90;19.60;;;;;;6009579;23;20166;-86
2023/10/01 11:46:19;;;;;;;18.35;11.25;;;22.80;19.50;;;;;;6038149;23;20174;-85
2023/10/01 11:48:59;;;;;;;18.63;10.98;;;22.90;22.50;;;;;;6037221;23;20697;-86
2023/10/01 11:51:36;;;;;;;17.73;11.02;;;23.00;22.80;;;;;;6037886;23;20666;-86
2023/10/01 11:54:09;;;;;;;18.00;10.65;;;23.00;21.90;;;;;;6038836;23;20235;-85
2023/10/01 11:56:37;;;;;;;17.98;10.82;;;23.00;20.00;;;;;;6038920;23;20181;-85
2023/10/01 11:59:08;;;;;;;20.40;10.88;;;23.00;21.30;;;;;;6038222;23;20197;-85
2023/10/01 12:01:48;;;;;;;19.67;10.90;;;23.00;21.80;;;;;;6038695;23;20214;-85
2023/10/01 12:04:29;;;;;;;20.42;11.50;;;23.00;20.00;;;;;;6037962;23;20166;-86
2023/10/01 12:07:15;;;;;;;19.45;10.73;;;22.80;19.60;;;;;;6038498;23;20281;-85
2023/10/01 12:09:43;;;;;;;20.98;10.50;;;22.60;20.30;;;;;;6037077;23;20577;-85
2023/10/01 12:12:10;;;;;;;18.50;10.88;;;22.40;20.00;;;;;;6035076;23;20178;-86
2023/10/01 12:17:23;;;;;;;18.27;11.25;;;22.70;21.30;;;;;;6035550;23;20170;-87
2023/10/01 12:19:52;;;;;;;17.98;10.98;;;22.90;20.90;;;;;;6043478;23;20738;-87
2023/10/01 12:22:23;;;;;;;17.85;10.60;;;22.90;21.10;;;;;;6063576;23;20173;-87
2023/10/01 12:24:56;;;;;;;18.58;10.80;;;23.00;20.70;;;;;;6065998;23;20196;-87
2023/10/01 12:30:32;;;;;;;20.35;11.10;;;22.80;22.60;;;;;;5117097;27;20556;-87
2023/10/01 12:33:02;;;;;;;18.13;10.68;;;22.80;22.20;;;;;;5101665;28;20998;-87
2023/10/01 12:35:28;;;;;;;18.05;10.55;;;22.80;21.00;;;;;;5105184;28;20200;-86
2023/10/01 12:40:52;;;;;;;19.33;10.85;;;22.80;20.60;;;;;;5101036;28;20202;-86
2023/10/01 12:43:36;;;;;;;20.30;10.38;;;22.70;20.90;;;;;;5103536;28;20206;-87
2023/10/01 12:46:08;;;;;;;16.67;10.35;;;22.80;19.70;;;;;;5111103;28;20194;-87
2023/10/01 12:48:35;;;;;;;17.42;10.48;;;22.80;19.20;;;;;;5101343;28;20840;-87
2023/10/01 12:51:03;;;;;;;18.92;10.48;;;22.80;20.10;;;;;;5094972;28;20311;-87
2023/10/01 12:53:34;;;;;;;17.25;10.10;;;22.80;20.10;;;;;;5102359;28;20587;-87
2023/10/01 12:56:02;;;;;;;17.00;10.27;;;22.80;20.90;;;;;;5104710;28;20227;-86
2023/10/01 12:58:35;;;;;;;14.95;9.85;;;22.80;19.70;;;;;;5078800;28;20582;-87
2023/10/01 13:01:05;;;;;;;16.90;10.25;;;22.80;19.40;;;;;;5095960;28;20195;-87
2023/10/01 13:03:35;;;;;;;18.17;10.45;;;22.80;18.20;;;;;;5096238;28;20212;-86
2023/10/01 13:06:05;;;;;;;16.92;10.18;;;22.80;17.60;;;;;;5105272;28;20286;-86
2023/10/01 13:08:34;;;;;;;17.98;10.68;;;22.80;19.00;;;;;;5095256;28;20217;-86
2023/10/01 13:11:00;;;;;;;15.63;10.05;;;22.80;20.00;;;;;;5088638;28;20197;-86
2023/10/01 13:13:35;;;;;;;18.48;10.57;;;22.80;19.20;;;;;;5095009;28;20731;-86
2023/10/01 13:16:16;;;;;;;16.98;9.90;;;22.80;20.00;;;;;;5093540;28;20223;-86
2023/10/01 13:18:43;;;;;;;16.80;10.18;;;22.70;19.30;;;;;;5093201;28;20195;-86
2023/10/01 13:21:10;;;;;;;16.83;9.98;;;22.80;20.80;;;;;;5096265;28;20204;-86
2023/10/01 13:23:44;;;;;;;19.25;10.57;;;22.80;18.70;;;;;;5100123;28;20723;-86
2023/10/01 13:26:15;;;;;;;19.35;10.77;;;22.80;19.60;;;;;;5087733;28;20199;-86
2023/10/01 13:28:47;;;;;;;16.55;10.18;;;22.70;19.30;;;;;;5105851;28;20216;-86
2023/10/01 13:34:09;;;;;;;18.30;9.82;;;22.60;18.20;;;;;;5092832;28;20207;-86
2023/10/01 13:36:49;;;;;;;17.70;10.18;;;22.50;18.50;;;;;;5102049;28;20253;-86
2023/10/01 13:39:25;;;;;;;15.75;9.25;;;22.50;19.90;;;;;;5098871;28;20278;-86